createdAt,value
2023-05-13T00:01:38.848Z,101002.71
2023-05-13T00:04:06.916Z,101004.50
2023-05-13T00:06:34.380Z,101004.11
2023-05-13T00:09:01.679Z,101003.89
2023-05-13T00:11:28.714Z,101001.27
2023-05-13T00:13:55.791Z,100998.57
2023-05-13T00:16:25.483Z,100998.92
2023-05-13T00:18:52.530Z,101000.43
2023-05-13T00:21:19.538Z,101003.05
2023-05-13T00:23:46.529Z,101007.06
2023-05-13T00:26:13.690Z,101006.63
2023-05-13T00:28:41.338Z,101004.48
2023-05-13T00:31:10.133Z,101007.96
2023-05-13T00:33:37.731Z,101008.67
2023-05-13T00:36:05.153Z,101006.95
2023-05-13T00:38:32.910Z,101003.80
2023-05-13T00:40:59.888Z,101008.69
2023-05-13T00:43:27.669Z,101010.14
2023-05-13T00:45:54.751Z,101010.30
2023-05-13T00:48:21.923Z,101016.33
2023-05-13T00:50:48.918Z,101011.46
2023-05-13T00:53:16.692Z,101014.36
2023-05-13T00:55:44.498Z,101015.11
2023-05-13T00:58:12.140Z,101014.35
2023-05-13T01:01:06.942Z,101014.92
2023-05-13T01:03:39.634Z,101018.40
2023-05-13T01:06:13.823Z,101015.90
2023-05-13T01:09:07.631Z,101020.79
2023-05-13T01:11:37.753Z,101024.38
2023-05-13T01:14:17.068Z,101023.44
2023-05-13T01:16:53.419Z,101020.50
2023-05-13T01:19:27.602Z,101019.13
2023-05-13T01:21:55.203Z,101023.38
2023-05-13T01:24:22.619Z,101025.15
2023-05-13T01:26:49.744Z,101020.14
2023-05-13T01:29:16.836Z,101022.46
2023-05-13T01:31:44.181Z,101020.41
2023-05-13T01:34:11.608Z,101020.97
2023-05-13T01:36:39.960Z,101020.40
2023-05-13T01:39:07.833Z,101021.61
2023-05-13T01:41:35.246Z,101026.19
2023-05-13T01:44:02.436Z,101026.67
2023-05-13T01:46:29.584Z,101030.34
2023-05-13T01:48:56.582Z,101036.26
2023-05-13T01:51:23.704Z,101041.13
2023-05-13T01:53:50.656Z,101042.73
2023-05-13T01:56:17.969Z,101040.41
2023-05-13T01:58:44.983Z,101038.23
2023-05-13T02:01:12.060Z,101037.52
2023-05-13T02:03:39.161Z,101042.42
2023-05-13T02:06:06.495Z,101045.92
2023-05-13T02:08:33.491Z,101046.08
2023-05-13T02:11:00.780Z,101043.27
2023-05-13T02:13:28.820Z,101043.34
2023-05-13T02:15:55.996Z,101040.98
2023-05-13T02:18:23.286Z,101037.21
2023-05-13T02:20:50.569Z,101038.16
2023-05-13T02:23:17.851Z,101036.77
2023-05-13T02:25:44.895Z,101037.50
2023-05-13T02:28:11.951Z,101038.84
2023-05-13T02:30:38.947Z,101038.92
2023-05-13T02:33:06.958Z,101038.67
2023-05-13T02:35:34.248Z,101037.95
2023-05-13T02:38:04.055Z,101032.73
2023-05-13T02:40:31.990Z,101032.30
2023-05-13T02:42:59.563Z,101033.17
2023-05-13T02:45:31.531Z,101026.55
2023-05-13T02:47:58.667Z,101027.92
2023-05-13T02:50:26.477Z,101029.20
2023-05-13T02:52:53.741Z,101030.88
2023-05-13T02:55:20.976Z,101042.04
2023-05-13T02:57:48.035Z,101046.71
2023-05-13T03:00:16.021Z,101037.28
2023-05-13T03:02:43.118Z,101033.61
2023-05-13T03:05:10.275Z,101031.58
2023-05-13T03:07:37.261Z,101029.92
2023-05-13T03:10:05.684Z,101025.95
2023-05-13T03:12:32.771Z,101014.48
2023-05-13T03:14:59.925Z,101005.85
2023-05-13T03:17:27.014Z,101004.23
2023-05-13T03:19:54.182Z,100996.29
2023-05-13T03:22:21.275Z,100986.17
2023-05-13T03:24:48.343Z,100984.61
2023-05-13T03:27:15.653Z,100986.59
2023-05-13T03:29:43.547Z,100986.52
2023-05-13T03:32:10.688Z,100981.42
2023-05-13T03:34:38.038Z,100982.11
2023-05-13T03:37:05.670Z,100986.96
2023-05-13T03:39:32.708Z,100988.41
2023-05-13T03:41:59.748Z,100984.62
2023-05-13T03:44:26.772Z,100987.38
2023-05-13T03:46:53.835Z,100992.15
2023-05-13T03:49:21.112Z,100991.65
2023-05-13T03:51:48.172Z,100993.56
2023-05-13T03:54:15.268Z,100988.84
2023-05-13T03:56:42.366Z,100987.98
2023-05-13T03:59:09.500Z,100985.11
2023-05-13T04:01:36.596Z,100982.43
2023-05-13T04:04:03.773Z,100983.59
2023-05-13T04:06:32.018Z,100981.95
2023-05-13T04:08:59.051Z,100981.06
2023-05-13T04:11:26.102Z,100980.57
2023-05-13T04:13:54.823Z,100978.69
2023-05-13T04:16:22.711Z,100984.92
2023-05-13T04:18:49.759Z,100983.91
2023-05-13T04:21:17.133Z,100991.76
2023-05-13T04:23:44.109Z,100992.21
2023-05-13T04:26:11.440Z,100989.19
2023-05-13T04:28:38.899Z,100995.26
2023-05-13T04:31:06.195Z,100994.25
2023-05-13T04:33:35.676Z,100990.71
2023-05-13T04:36:03.606Z,100992.35
2023-05-13T04:38:31.497Z,100997.63
2023-05-13T04:40:58.907Z,101000.24
2023-05-13T04:43:33.777Z,100995.23
2023-05-13T04:46:01.504Z,100997.14
2023-05-13T04:48:28.628Z,100997.61
2023-05-13T04:50:58.458Z,100996.52
2023-05-13T04:53:25.967Z,101000.45
2023-05-13T04:56:00.666Z,100998.50
2023-05-13T04:58:29.054Z,100992.69
2023-05-13T05:00:57.495Z,100988.20
2023-05-13T05:03:25.035Z,100990.48
2023-05-13T05:05:52.468Z,100993.27
2023-05-13T05:08:19.605Z,100988.24
2023-05-13T05:10:47.885Z,100987.19
2023-05-13T05:13:15.748Z,100985.05
2023-05-13T05:15:43.888Z,100987.79
2023-05-13T05:18:11.297Z,100985.17
2023-05-13T05:20:39.645Z,100986.48
2023-05-13T05:23:10.790Z,100984.33
2023-05-13T05:25:38.350Z,100989.60
2023-05-13T05:28:05.562Z,100989.60
2023-05-13T05:30:39.618Z,100988.64
2023-05-13T05:33:11.778Z,100989.28
2023-05-13T05:35:40.230Z,100988.55
2023-05-13T05:38:09.200Z,100992.84
2023-05-13T05:40:37.785Z,100993.13
2023-05-13T05:43:05.207Z,100987.84
2023-05-13T05:45:32.230Z,100990.54
2023-05-13T05:47:59.402Z,100991.36
2023-05-13T05:50:26.458Z,100991.27
2023-05-13T05:52:53.621Z,100991.93
2023-05-13T05:55:21.080Z,100992.50
2023-05-13T05:57:48.069Z,100996.68
2023-05-13T06:00:15.488Z,100998.20
2023-05-13T06:02:42.810Z,101002.13
2023-05-13T06:05:11.012Z,101001.88
2023-05-13T06:07:38.746Z,101002.83
2023-05-13T06:10:08.248Z,101005.96
2023-05-13T06:12:35.900Z,101001.52
2023-05-13T06:15:03.016Z,101000.95
2023-05-13T06:17:30.096Z,101002.70
2023-05-13T06:19:58.877Z,100999.63
2023-05-13T06:22:25.930Z,100996.84
2023-05-13T06:24:53.061Z,100999.50
2023-05-13T06:27:20.059Z,100999.67
2023-05-13T06:29:47.067Z,100995.63
2023-05-13T06:32:14.249Z,100998.14
2023-05-13T06:34:46.086Z,100994.05
2023-05-13T06:37:16.091Z,100985.79
2023-05-13T06:39:43.578Z,100990.14
2023-05-13T06:42:12.411Z,100991.98
2023-05-13T06:44:44.641Z,100995.06
2023-05-13T06:47:16.089Z,100997.49
2023-05-13T06:49:43.598Z,100996.29
2023-05-13T06:52:10.993Z,100994.42
2023-05-13T06:54:38.126Z,100995.05
2023-05-13T06:57:06.380Z,100995.67
2023-05-13T06:59:33.593Z,100996.44
2023-05-13T07:02:00.669Z,100992.70
2023-05-13T07:04:29.464Z,100993.94
2023-05-13T07:06:57.435Z,100994.23
2023-05-13T07:09:24.517Z,100992.90
2023-05-13T07:11:51.483Z,100988.58
2023-05-13T07:14:18.555Z,100992.38
2023-05-13T07:16:45.612Z,100985.05
2023-05-13T07:19:12.681Z,100984.52
2023-05-13T07:21:39.871Z,100982.54
2023-05-13T07:24:06.907Z,100979.52
2023-05-13T07:26:33.973Z,100980.72
2023-05-13T07:29:02.060Z,100985.05
2023-05-13T07:31:30.629Z,100986.45
2023-05-13T07:33:57.972Z,100983.79
2023-05-13T07:36:25.068Z,100983.18
2023-05-13T07:38:52.110Z,100979.87
2023-05-13T07:41:19.175Z,100981.55
2023-05-13T07:43:46.434Z,100983.38
2023-05-13T07:46:13.537Z,100978.02
2023-05-13T07:48:41.218Z,100975.66
2023-05-13T07:51:08.248Z,100976.64
2023-05-13T07:53:36.783Z,100971.82
2023-05-13T07:56:04.129Z,100972.92
2023-05-13T07:58:31.178Z,100972.97
2023-05-13T08:00:58.282Z,100973.29
2023-05-13T08:03:25.509Z,100966.80
2023-05-13T08:05:52.695Z,100966.71
2023-05-13T08:08:19.646Z,100965.38
2023-05-13T08:10:46.640Z,100965.09
2023-05-13T08:13:13.706Z,100962.27
2023-05-13T08:15:41.320Z,100961.67
2023-05-13T08:18:08.318Z,100953.77
2023-05-13T08:20:35.465Z,100957.81
2023-05-13T08:23:02.652Z,100952.11
2023-05-13T08:25:29.625Z,100954.98
2023-05-13T08:27:57.567Z,100946.95
2023-05-13T08:30:24.537Z,100947.95
2023-05-13T08:32:51.530Z,100938.88
2023-05-13T08:35:18.576Z,100936.18
2023-05-13T08:37:45.615Z,100928.51
2023-05-13T08:40:12.685Z,100927.19
2023-05-13T08:42:42.708Z,100921.27
2023-05-13T08:45:10.606Z,100920.71
2023-05-13T08:47:58.058Z,100924.15
2023-05-13T08:50:25.119Z,100919.31
2023-05-13T08:52:52.560Z,100919.66
2023-05-13T08:55:20.165Z,100914.89
2023-05-13T08:57:47.366Z,100909.34
2023-05-13T09:00:14.827Z,100904.59
2023-05-13T09:02:42.112Z,100900.80
2023-05-13T09:05:09.960Z,100898.13
2023-05-13T09:07:37.483Z,100891.70
2023-05-13T09:10:06.146Z,100885.42
2023-05-13T09:12:51.973Z,100880.86
2023-05-13T09:15:23.993Z,100883.71
2023-05-13T09:17:53.290Z,100879.77
2023-05-13T09:20:21.173Z,100873.21
2023-05-13T09:22:49.560Z,100867.04
2023-05-13T09:25:17.424Z,100859.02
2023-05-13T09:27:50.726Z,100857.77
2023-05-13T09:30:17.796Z,100863.11
2023-05-13T09:32:44.982Z,100865.08
2023-05-13T09:35:17.084Z,100856.81
2023-05-13T09:37:47.889Z,100858.36
2023-05-13T09:40:16.185Z,100854.94
2023-05-13T09:42:44.280Z,100856.94
2023-05-13T09:45:14.972Z,100848.52
2023-05-13T09:47:42.009Z,100840.73
2023-05-13T09:50:10.143Z,100829.75
2023-05-13T09:52:38.098Z,100831.06
2023-05-13T09:55:08.579Z,100829.33
2023-05-13T09:57:35.616Z,100827.54
2023-05-13T10:00:08.303Z,100825.54
2023-05-13T10:02:40.088Z,100821.96
2023-05-13T10:05:07.391Z,100815.72
2023-05-13T10:07:34.852Z,100816.78
2023-05-13T10:10:03.245Z,100818.23
2023-05-13T10:12:31.630Z,100820.15
2023-05-13T10:14:58.696Z,100816.98
2023-05-13T10:17:26.026Z,100815.20
2023-05-13T10:19:53.885Z,100812.14
2023-05-13T10:22:31.601Z,100820.20
2023-05-13T10:24:59.457Z,100815.04
2023-05-13T10:27:28.542Z,100816.14
2023-05-13T10:29:56.241Z,100814.84
2023-05-13T10:32:25.017Z,100818.61
2023-05-13T10:35:05.229Z,100814.79
2023-05-13T10:37:44.562Z,100816.09
2023-05-13T10:40:49.079Z,100810.67
2023-05-13T10:43:22.973Z,100804.72
2023-05-13T10:45:51.308Z,100810.39
2023-05-13T10:48:18.686Z,100809.58
2023-05-13T10:50:56.592Z,100813.88
2023-05-13T10:53:32.104Z,100813.46
2023-05-13T10:55:59.744Z,100812.77
2023-05-13T10:58:30.845Z,100809.93
2023-05-13T11:01:16.291Z,100805.66
2023-05-13T11:03:52.248Z,100800.98
2023-05-13T11:06:24.041Z,100800.69
2023-05-13T11:08:53.597Z,100797.25
2023-05-13T11:11:25.075Z,100793.16
2023-05-13T11:13:52.497Z,100788.40
2023-05-13T11:16:20.150Z,100790.16
2023-05-13T11:18:47.297Z,100791.09
2023-05-13T11:21:14.380Z,100793.17
2023-05-13T11:24:06.609Z,100792.77
2023-05-13T11:26:53.438Z,100791.59
2023-05-13T11:29:33.980Z,100786.69
2023-05-13T11:32:02.259Z,100786.30
2023-05-13T11:34:29.463Z,100784.05
2023-05-13T11:36:57.687Z,100785.83
2023-05-13T11:39:26.613Z,100784.01
2023-05-13T11:41:54.007Z,100786.41
2023-05-13T11:44:23.421Z,100784.60
2023-05-13T11:46:57.221Z,100784.23
2023-05-13T11:49:39.631Z,100782.41
2023-05-13T11:52:07.874Z,100787.16
2023-05-13T11:54:55.080Z,100785.55
2023-05-13T11:57:25.072Z,100788.23
2023-05-13T11:59:59.305Z,100784.77
2023-05-13T12:02:28.369Z,100778.69
2023-05-13T12:04:55.580Z,100778.27
2023-05-13T12:07:24.194Z,100776.20
2023-05-13T12:09:51.711Z,100772.41
2023-05-13T12:12:19.011Z,100769.79
2023-05-13T12:14:46.901Z,100764.27
2023-05-13T12:17:14.196Z,100762.73
2023-05-13T12:19:41.310Z,100758.86
2023-05-13T12:22:08.397Z,100754.23
2023-05-13T12:24:35.455Z,100755.30
2023-05-13T12:27:08.773Z,100749.48
2023-05-13T12:29:42.603Z,100745.54
2023-05-13T12:32:09.903Z,100744.83
2023-05-13T12:34:36.898Z,100747.02
2023-05-13T12:37:13.069Z,100749.25
2023-05-13T12:39:43.284Z,100752.34
2023-05-13T12:42:17.486Z,100752.02
2023-05-13T12:44:45.072Z,100748.83
2023-05-13T12:47:13.273Z,100755.80
2023-05-13T12:49:56.986Z,100759.28
2023-05-13T12:52:24.077Z,100758.90
2023-05-13T12:54:51.091Z,100762.45
2023-05-13T12:57:18.369Z,100756.58
2023-05-13T12:59:48.279Z,100757.27
2023-05-13T13:02:15.562Z,100753.21
2023-05-13T13:04:42.574Z,100748.21
2023-05-13T13:07:12.759Z,100747.58
2023-05-13T13:09:39.759Z,100743.30
2023-05-13T13:12:07.194Z,100743.71
2023-05-13T13:14:34.258Z,100745.15
2023-05-13T13:17:01.322Z,100746.82
2023-05-13T13:19:28.405Z,100742.83
2023-05-13T13:21:55.560Z,100744.91
2023-05-13T13:24:22.596Z,100740.96
2023-05-13T13:26:50.205Z,100738.58
2023-05-13T13:29:17.248Z,100741.37
2023-05-13T13:31:44.316Z,100740.86
2023-05-13T13:34:12.317Z,100736.90
2023-05-13T13:36:39.938Z,100737.64
2023-05-13T13:39:06.945Z,100736.73
2023-05-13T13:41:33.975Z,100735.66
2023-05-13T13:44:00.990Z,100728.86
2023-05-13T13:46:28.007Z,100735.21
2023-05-13T13:48:55.069Z,100733.27
2023-05-13T13:51:22.073Z,100728.30
2023-05-13T13:53:49.516Z,100727.15
2023-05-13T13:56:16.585Z,100725.30
2023-05-13T13:58:43.598Z,100725.51
2023-05-13T14:01:10.814Z,100724.34
2023-05-13T14:03:37.884Z,100722.23
2023-05-13T14:06:05.237Z,100726.04
2023-05-13T14:08:32.327Z,100732.09
2023-05-13T14:10:59.490Z,100730.39
2023-05-13T14:13:26.503Z,100732.69
2023-05-13T14:15:53.635Z,100732.23
2023-05-13T14:18:20.739Z,100733.65
2023-05-13T14:20:48.822Z,100729.53
2023-05-13T14:23:16.104Z,100730.16
2023-05-13T14:25:43.579Z,100730.17
2023-05-13T14:28:12.472Z,100732.88
2023-05-13T14:30:39.444Z,100731.55
2023-05-13T14:33:06.572Z,100731.48
2023-05-13T14:35:34.445Z,100731.88
2023-05-13T14:38:01.501Z,100726.90
2023-05-13T14:40:28.582Z,100731.19
2023-05-13T14:42:55.842Z,100729.81
2023-05-13T14:45:22.876Z,100727.02
2023-05-13T14:47:53.819Z,100729.56
2023-05-13T14:50:21.429Z,100724.59
2023-05-13T14:52:48.622Z,100721.67
2023-05-13T14:55:15.778Z,100724.67
2023-05-13T14:57:42.769Z,100723.09
2023-05-13T15:00:10.520Z,100722.89
2023-05-13T15:02:37.892Z,100721.23
2023-05-13T15:05:05.602Z,100720.96
2023-05-13T15:07:32.587Z,100720.69
2023-05-13T15:09:59.584Z,100722.77
2023-05-13T15:12:26.819Z,100721.27
2023-05-13T15:14:57.242Z,100722.36
2023-05-13T15:17:24.288Z,100723.21
2023-05-13T15:19:51.310Z,100723.21
2023-05-13T15:22:18.464Z,100722.01
2023-05-13T15:24:45.558Z,100722.80
2023-05-13T15:27:12.615Z,100723.42
2023-05-13T15:29:39.591Z,100719.84
2023-05-13T15:32:07.509Z,100718.77
2023-05-13T15:34:35.101Z,100718.36
2023-05-13T15:37:02.055Z,100718.18
2023-05-13T15:39:29.157Z,100717.09
2023-05-13T15:41:56.359Z,100715.54
2023-05-13T15:44:23.419Z,100718.09
2023-05-13T15:46:50.525Z,100717.33
2023-05-13T15:49:17.898Z,100716.09
2023-05-13T15:51:44.875Z,100717.75
2023-05-13T15:54:11.952Z,100717.19
2023-05-13T15:56:38.959Z,100724.09
2023-05-13T15:59:05.943Z,100722.44
2023-05-13T16:01:33.053Z,100719.51
2023-05-13T16:04:00.205Z,100718.06
2023-05-13T16:06:27.293Z,100717.18
2023-05-13T16:08:56.235Z,100720.77
2023-05-13T16:11:24.812Z,100725.77
2023-05-13T16:13:52.505Z,100724.60
2023-05-13T16:16:20.756Z,100727.05
2023-05-13T16:18:47.950Z,100727.48
2023-05-13T16:21:14.961Z,100732.09
2023-05-13T16:23:42.004Z,100732.44
2023-05-13T16:26:09.015Z,100731.23
2023-05-13T16:28:35.983Z,100734.31
2023-05-13T16:31:03.044Z,100739.27
2023-05-13T16:33:30.416Z,100736.80
2023-05-13T16:35:57.460Z,100740.29
2023-05-13T16:38:25.872Z,100740.52
2023-05-13T16:40:53.215Z,100746.14
2023-05-13T16:43:20.215Z,100747.83
2023-05-13T16:45:47.240Z,100747.91
2023-05-13T16:48:14.531Z,100749.94
2023-05-13T16:50:41.679Z,100751.26
2023-05-13T16:53:08.721Z,100749.73
2023-05-13T16:55:35.731Z,100752.25
2023-05-13T16:58:02.685Z,100751.30
2023-05-13T17:00:30.387Z,100747.08
2023-05-13T17:02:57.901Z,100750.35
2023-05-13T17:05:24.962Z,100752.42
2023-05-13T17:07:51.989Z,100753.54
2023-05-13T17:10:18.990Z,100752.74
2023-05-13T17:12:46.179Z,100754.75
2023-05-13T17:15:13.274Z,100756.91
2023-05-13T17:17:40.380Z,100760.11
2023-05-13T17:20:07.949Z,100764.08
2023-05-13T17:22:34.993Z,100764.98
2023-05-13T17:25:02.109Z,100765.19
2023-05-13T17:27:29.081Z,100768.05
2023-05-13T17:29:56.139Z,100765.77
2023-05-13T17:32:23.211Z,100766.46
2023-05-13T17:34:50.301Z,100767.36
2023-05-13T17:37:17.300Z,100766.23
2023-05-13T17:39:44.365Z,100769.10
2023-05-13T17:42:11.337Z,100768.36
2023-05-13T17:44:38.434Z,100766.80
2023-05-13T17:47:05.423Z,100770.27
2023-05-13T17:49:32.452Z,100773.39
2023-05-13T17:51:59.465Z,100775.27
2023-05-13T17:54:26.436Z,100775.42
2023-05-13T17:56:53.637Z,100774.44
2023-05-13T17:59:20.686Z,100776.37
2023-05-13T18:01:47.682Z,100775.30
2023-05-13T18:04:14.735Z,100776.85
2023-05-13T18:06:41.736Z,100774.24
2023-05-13T18:09:08.732Z,100775.61
2023-05-13T18:11:35.784Z,100773.65
2023-05-13T18:14:03.283Z,100776.02
2023-05-13T18:16:30.360Z,100778.36
2023-05-13T18:18:57.431Z,100779.56
2023-05-13T18:21:26.541Z,100781.14
2023-05-13T18:23:53.527Z,100780.05
2023-05-13T18:26:20.954Z,100780.54
2023-05-13T18:28:47.975Z,100778.02
2023-05-13T18:31:15.017Z,100781.35
2023-05-13T18:33:42.087Z,100776.61
2023-05-13T18:36:10.214Z,100778.79
2023-05-13T18:38:37.556Z,100778.10
2023-05-13T18:41:05.124Z,100781.48
2023-05-13T18:43:32.189Z,100782.66
2023-05-13T18:45:59.360Z,100785.02
2023-05-13T18:48:26.381Z,100782.66
2023-05-13T18:50:53.589Z,100782.02
2023-05-13T18:53:20.653Z,100779.70
2023-05-13T18:55:47.608Z,100783.09
2023-05-13T18:58:14.677Z,100781.21
2023-05-13T19:00:41.942Z,100782.83
2023-05-13T19:03:09.099Z,100786.75
2023-05-13T19:05:36.310Z,100783.98
2023-05-13T19:08:03.562Z,100784.02
2023-05-13T19:10:30.563Z,100785.98
2023-05-13T19:12:57.653Z,100789.64
2023-05-13T19:15:25.368Z,100787.29
2023-05-13T19:17:52.680Z,100787.35
2023-05-13T19:20:19.949Z,100783.00
2023-05-13T19:22:47.182Z,100779.96
2023-05-13T19:25:14.173Z,100780.86
2023-05-13T19:27:41.253Z,100783.70
2023-05-13T19:30:08.827Z,100782.73
2023-05-13T19:32:36.453Z,100780.41
2023-05-13T19:35:03.917Z,100777.02
2023-05-13T19:37:31.198Z,100775.83
2023-05-13T19:39:58.205Z,100776.55
2023-05-13T19:42:25.546Z,100775.64
2023-05-13T19:44:52.561Z,100776.02
2023-05-13T19:47:19.571Z,100774.10
2023-05-13T19:49:46.888Z,100772.88
2023-05-13T19:52:13.878Z,100772.00
2023-05-13T19:54:40.996Z,100769.16
2023-05-13T19:57:08.143Z,100764.84
2023-05-13T19:59:36.210Z,100764.94
2023-05-13T20:02:03.343Z,100760.89
2023-05-13T20:04:30.789Z,100759.56
2023-05-13T20:06:58.256Z,100753.73
2023-05-13T20:09:26.922Z,100755.69
2023-05-13T20:11:53.968Z,100754.15
2023-05-13T20:14:23.318Z,100757.52
2023-05-13T20:16:50.647Z,100759.73
2023-05-13T20:19:18.155Z,100760.19
2023-05-13T20:21:46.217Z,100764.27
2023-05-13T20:24:13.541Z,100763.55
2023-05-13T20:26:40.575Z,100760.62
2023-05-13T20:29:08.252Z,100759.10
2023-05-13T20:31:35.264Z,100759.45
2023-05-13T20:34:03.498Z,100757.72
2023-05-13T20:36:32.188Z,100755.27
2023-05-13T20:38:59.218Z,100755.84
2023-05-13T20:41:26.245Z,100756.50
2023-05-13T20:43:53.255Z,100756.25
2023-05-13T20:46:20.294Z,100751.59
2023-05-13T20:48:48.094Z,100753.30
2023-05-13T20:51:15.156Z,100751.06
2023-05-13T20:53:42.126Z,100747.23
2023-05-13T20:56:10.250Z,100753.23
2023-05-13T20:58:37.450Z,100753.46
2023-05-13T21:01:04.500Z,100757.30
2023-05-13T21:04:59.512Z,100763.17
2023-05-13T21:07:26.495Z,100760.13
2023-05-13T21:09:53.651Z,100756.17
2023-05-13T21:12:20.961Z,100756.27
2023-05-13T21:14:48.150Z,100754.23
2023-05-13T21:17:20.591Z,100753.98
2023-05-13T21:19:50.701Z,100753.51
2023-05-13T21:22:18.923Z,100750.24
2023-05-13T21:24:46.584Z,100752.63
2023-05-13T21:27:13.840Z,100749.88
2023-05-13T21:29:41.008Z,100745.39
2023-05-13T21:32:08.158Z,100748.91
2023-05-13T21:34:35.297Z,100741.67
2023-05-13T21:37:03.042Z,100737.81
2023-05-13T21:39:30.396Z,100735.13
2023-05-13T21:41:59.659Z,100737.29
2023-05-13T21:44:28.328Z,100740.11
2023-05-13T21:46:55.432Z,100737.45
2023-05-13T21:49:22.480Z,100738.45
2023-05-13T21:51:50.806Z,100741.91
2023-05-13T21:54:18.687Z,100737.55
2023-05-13T21:56:46.460Z,100740.56
2023-05-13T21:59:13.825Z,100742.71
2023-05-13T22:01:41.281Z,100739.44
2023-05-13T22:04:08.453Z,100735.92
2023-05-13T22:06:35.519Z,100733.52
2023-05-13T22:09:02.849Z,100734.27
2023-05-13T22:11:30.210Z,100731.19
2023-05-13T22:13:58.601Z,100733.69
2023-05-13T22:16:25.815Z,100731.74
2023-05-13T22:18:55.429Z,100730.89
2023-05-13T22:21:22.492Z,100731.80
2023-05-13T22:23:50.870Z,100728.74
2023-05-13T22:26:18.124Z,100730.46
2023-05-13T22:28:46.721Z,100725.73
2023-05-13T22:31:14.996Z,100725.61
2023-05-13T22:33:43.649Z,100722.36
2023-05-13T22:36:13.624Z,100718.98
2023-05-13T22:38:43.975Z,100725.56
2023-05-13T22:41:11.433Z,100729.70
2023-05-13T22:43:38.960Z,100726.83
2023-05-13T22:46:06.124Z,100721.17
2023-05-13T22:48:34.738Z,100719.45
2023-05-13T22:51:02.272Z,100717.20
2023-05-13T22:53:30.000Z,100718.70
2023-05-13T22:55:57.143Z,100714.80
2023-05-13T22:58:24.084Z,100716.45
2023-05-13T23:00:51.127Z,100715.29
2023-05-13T23:03:18.281Z,100716.83
2023-05-13T23:05:45.327Z,100717.41
2023-05-13T23:08:13.296Z,100714.13
2023-05-13T23:10:40.249Z,100712.14
2023-05-13T23:13:07.395Z,100714.36
2023-05-13T23:15:36.193Z,100718.55
2023-05-13T23:18:03.495Z,100716.36
2023-05-13T23:20:30.718Z,100715.33
2023-05-13T23:22:57.866Z,100713.38
2023-05-13T23:25:25.129Z,100715.20
2023-05-13T23:27:52.168Z,100718.93
2023-05-13T23:30:20.585Z,100721.11
2023-05-13T23:32:47.885Z,100716.10
2023-05-13T23:35:15.077Z,100715.95
2023-05-13T23:37:42.278Z,100715.21
2023-05-13T23:40:10.150Z,100717.46
2023-05-13T23:42:37.900Z,100716.38
2023-05-13T23:45:05.558Z,100715.14
2023-05-13T23:47:33.068Z,100716.14
2023-05-13T23:50:00.348Z,100718.27
2023-05-13T23:52:27.703Z,100720.23
2023-05-13T23:54:55.085Z,100721.13
2023-05-13T23:57:22.257Z,100719.84
2023-05-13T23:59:49.485Z,100723.27
